首页
METAR-TAF:

METAR-TAF

机场 :

曼海姆, 德国

纬度: 49-28-21N, 经度: 008-30-56E, 海拔: 100米

当前天气观测

该预报发布于46分钟前的03:50 UTC
风速3节,风向多变
温度 12°C
湿度 88%
气压 1000 hPa
能见度10公里或以上
少量云层高于3300英尺
散云层高于6700英尺
多云层高于10000英尺
小雨

METAR: EDFM 250350Z VRB03KT 9999 -RA FEW033 SCT067 BKN100 12/10 Q1000

时间: 06:36 (04:36 UTC)

预报

该预报发布于11小时和36分钟前的17:00 UTC
预报有效从24日的 18点(UTC)到 24日的 21点(UTC)
风速3节,风向多变
能见度10公里或以上
散云层高于4000英尺
成为
从 24日的 18点(UTC)到 24日的 21点(UTC)
风速7节,风向
短暂存在
从 24日的 18点(UTC)到 24日的 21点(UTC)
能見度: 4500

TAF: EDFM 241700Z 2418/2421 VRB03KT 9999 SCT040 BECMG 2418/2421 17007KT TEMPO 2418/2421 4500 RA

超过4000个机场的气象观测和天气预报(METAR&TAF报告)。

可查询的气象台以黄色和红色小点在地图上表示。

将鼠标移到小点上方,可查看气象台名称。

然后点击查看天气观测和预报。

如需切换地图:点击带黑十字的绿色按钮放大地图;点击带横线的绿色按钮缩小地图;或者点击绿色箭头查看邻近地区的地图。


METAR-TAF: